createdAt,value
2022-10-23T00:01:27.071Z,100.00
2022-10-23T00:03:58.103Z,100.00
2022-10-23T00:06:26.811Z,100.00
2022-10-23T00:08:53.408Z,100.00
2022-10-23T00:11:23.796Z,100.00
2022-10-23T00:13:53.447Z,100.00
2022-10-23T00:16:20.139Z,100.00
2022-10-23T00:18:46.842Z,100.00
2022-10-23T00:21:15.648Z,100.00
2022-10-23T00:23:43.536Z,100.00
2022-10-23T00:26:16.497Z,100.00
2022-10-23T00:28:49.833Z,100.00
2022-10-23T00:31:17.360Z,100.00
2022-10-23T00:33:44.816Z,100.00
2022-10-23T00:36:14.286Z,100.00
2022-10-23T00:38:40.995Z,100.00
2022-10-23T00:41:20.220Z,100.00
2022-10-23T00:44:07.103Z,100.00
2022-10-23T00:46:34.821Z,100.00
2022-10-23T00:49:02.623Z,100.00
2022-10-23T00:51:33.790Z,100.00
2022-10-23T00:54:22.855Z,100.00
2022-10-23T00:56:49.633Z,100.00
2022-10-23T00:59:16.354Z,100.00
2022-10-23T01:01:43.248Z,100.00
2022-10-23T01:04:10.935Z,100.00
2022-10-23T01:06:57.707Z,100.00
2022-10-23T01:09:31.174Z,100.00
2022-10-23T01:12:03.188Z,100.00
2022-10-23T01:14:40.532Z,100.00
2022-10-23T01:17:19.279Z,100.00
2022-10-23T01:19:55.292Z,100.00
2022-10-23T01:22:43.787Z,100.00
2022-10-23T01:25:41.645Z,100.00
2022-10-23T01:28:16.211Z,100.00
2022-10-23T01:30:45.693Z,100.00
2022-10-23T01:33:21.755Z,100.00
2022-10-23T01:36:04.659Z,100.00
2022-10-23T01:38:56.389Z,100.00
2022-10-23T01:41:26.069Z,100.00
2022-10-23T01:43:59.425Z,100.00
2022-10-23T01:46:28.491Z,100.00
2022-10-23T01:48:57.592Z,100.00
2022-10-23T01:51:27.320Z,100.00
2022-10-23T01:53:59.371Z,100.00
2022-10-23T01:56:33.781Z,100.00
2022-10-23T01:59:05.691Z,100.00
2022-10-23T02:01:35.139Z,100.00
2022-10-23T02:04:07.070Z,100.00
2022-10-23T02:06:33.792Z,100.00
2022-10-23T02:09:00.462Z,100.00
2022-10-23T02:11:27.201Z,100.00
2022-10-23T02:14:03.991Z,100.00
2022-10-23T02:16:30.554Z,100.00
2022-10-23T02:18:59.874Z,100.00
2022-10-23T02:21:38.611Z,100.00
2022-10-23T02:24:13.820Z,100.00
2022-10-23T02:26:45.998Z,100.00
2022-10-23T02:29:36.777Z,100.00
2022-10-23T02:32:04.701Z,100.00
2022-10-23T02:34:31.576Z,100.00
2022-10-23T02:36:58.187Z,100.00
2022-10-23T02:39:28.378Z,100.00
2022-10-23T02:42:32.394Z,100.00
2022-10-23T02:45:36.711Z,100.00
2022-10-23T02:48:15.347Z,100.00
2022-10-23T02:50:49.396Z,100.00
2022-10-23T02:54:00.552Z,100.00
2022-10-23T02:56:32.618Z,100.00
2022-10-23T02:59:09.891Z,100.00
2022-10-23T03:01:49.066Z,100.00
2022-10-23T03:04:17.774Z,100.00
2022-10-23T03:06:45.193Z,100.00
2022-10-23T03:09:11.820Z,100.00
2022-10-23T03:11:38.420Z,100.00
2022-10-23T03:14:05.060Z,100.00
2022-10-23T03:16:31.671Z,100.00
2022-10-23T03:18:58.378Z,100.00
2022-10-23T03:21:25.131Z,100.00
2022-10-23T03:23:51.858Z,100.00
2022-10-23T03:26:18.443Z,100.00
2022-10-23T03:28:45.085Z,100.00
2022-10-23T03:31:11.759Z,100.00
2022-10-23T03:33:38.526Z,100.00
2022-10-23T03:36:05.948Z,100.00
2022-10-23T03:38:33.036Z,100.00
2022-10-23T03:40:59.646Z,100.00
2022-10-23T03:43:26.258Z,100.00
2022-10-23T03:45:52.936Z,100.00
2022-10-23T03:48:19.517Z,100.00
2022-10-23T03:50:46.146Z,100.00
2022-10-23T03:53:12.766Z,100.00
2022-10-23T03:55:39.440Z,100.00
2022-10-23T03:58:06.024Z,100.00
2022-10-23T04:00:32.750Z,100.00
2022-10-23T04:02:59.379Z,100.00
2022-10-23T04:05:26.035Z,100.00
2022-10-23T04:07:53.183Z,100.00
2022-10-23T04:10:19.815Z,100.00
2022-10-23T04:12:46.415Z,100.00
2022-10-23T04:15:13.034Z,100.00
2022-10-23T04:17:39.694Z,100.00
2022-10-23T04:20:06.501Z,100.00
2022-10-23T04:22:33.972Z,100.00
2022-10-23T04:25:03.999Z,100.00
2022-10-23T04:27:30.636Z,100.00
2022-10-23T04:29:59.091Z,100.00
2022-10-23T04:32:26.210Z,100.00
2022-10-23T04:34:52.822Z,100.00
2022-10-23T04:37:19.793Z,100.00
2022-10-23T04:39:49.380Z,100.00
2022-10-23T04:42:16.008Z,100.00
2022-10-23T04:44:42.661Z,100.00
2022-10-23T04:47:09.263Z,100.00
2022-10-23T04:49:35.855Z,100.00
2022-10-23T04:52:02.649Z,100.00
2022-10-23T04:54:29.215Z,100.00
2022-10-23T04:56:55.824Z,100.00
2022-10-23T04:59:22.475Z,100.00
2022-10-23T05:01:49.099Z,100.00
2022-10-23T05:04:15.732Z,100.00
2022-10-23T05:06:43.593Z,100.00
2022-10-23T05:09:10.241Z,100.00
2022-10-23T05:11:36.903Z,100.00
2022-10-23T05:14:03.510Z,100.00
2022-10-23T05:16:42.424Z,100.00
2022-10-23T05:19:13.078Z,100.00
2022-10-23T05:21:42.614Z,100.00
2022-10-23T05:24:10.691Z,100.00
2022-10-23T05:26:37.468Z,100.00
2022-10-23T05:29:04.063Z,100.00
2022-10-23T05:31:32.000Z,100.00
2022-10-23T05:33:58.591Z,100.00
2022-10-23T05:36:26.080Z,100.00
2022-10-23T05:38:53.497Z,100.00
2022-10-23T05:41:21.064Z,100.00
2022-10-23T05:43:47.962Z,100.00
2022-10-23T05:46:14.613Z,100.00
2022-10-23T05:48:41.267Z,100.00
2022-10-23T05:51:10.297Z,100.00
2022-10-23T05:53:40.132Z,100.00
2022-10-23T05:56:09.676Z,100.00
2022-10-23T05:58:36.753Z,100.00
2022-10-23T06:01:08.895Z,100.00
2022-10-23T06:03:36.507Z,100.00
2022-10-23T06:06:04.010Z,100.00
2022-10-23T06:08:32.367Z,100.00
2022-10-23T06:10:59.618Z,100.00
2022-10-23T06:13:26.184Z,100.00
2022-10-23T06:15:52.760Z,100.00
2022-10-23T06:18:19.612Z,100.00
2022-10-23T06:20:46.220Z,100.00
2022-10-23T06:23:12.870Z,100.00
2022-10-23T06:25:40.395Z,100.00
2022-10-23T06:28:06.976Z,100.00
2022-10-23T06:30:33.650Z,100.00
2022-10-23T06:33:03.261Z,100.00
2022-10-23T06:35:32.827Z,100.00
2022-10-23T06:37:59.415Z,100.00
2022-10-23T06:40:26.194Z,100.00
2022-10-23T06:42:52.811Z,100.00
2022-10-23T06:45:19.407Z,100.00
2022-10-23T06:47:46.296Z,100.00
2022-10-23T06:50:15.502Z,100.00
2022-10-23T06:52:47.058Z,100.00
2022-10-23T06:55:14.972Z,100.00
2022-10-23T06:57:42.274Z,100.00
2022-10-23T07:00:13.114Z,100.00
2022-10-23T07:02:39.881Z,100.00
2022-10-23T07:05:08.818Z,100.00
2022-10-23T07:07:39.343Z,100.00
2022-10-23T07:10:06.777Z,100.00
2022-10-23T07:12:33.592Z,100.00
2022-10-23T07:15:00.206Z,100.00
2022-10-23T07:17:30.796Z,100.00
2022-10-23T07:19:57.550Z,100.00
2022-10-23T07:22:24.148Z,100.00
2022-10-23T07:24:50.788Z,100.00
2022-10-23T07:27:17.499Z,100.00
2022-10-23T07:29:44.103Z,100.00
2022-10-23T07:32:11.497Z,100.00
2022-10-23T07:34:38.280Z,100.00
2022-10-23T07:37:04.912Z,100.00
2022-10-23T07:39:31.572Z,100.00
2022-10-23T07:41:58.233Z,100.00
2022-10-23T07:44:27.638Z,100.00
2022-10-23T07:46:54.570Z,100.00
2022-10-23T07:49:21.135Z,100.00
2022-10-23T07:51:51.280Z,100.00
2022-10-23T07:54:18.751Z,100.00
2022-10-23T07:56:45.431Z,100.00
2022-10-23T07:59:13.296Z,100.00
2022-10-23T08:01:42.588Z,100.00
2022-10-23T08:04:10.743Z,100.00
2022-10-23T08:06:37.447Z,100.00
2022-10-23T08:09:06.532Z,100.00
2022-10-23T08:11:35.751Z,100.00
2022-10-23T08:14:04.766Z,100.00
2022-10-23T08:16:34.952Z,100.00
2022-10-23T08:19:02.126Z,100.00
2022-10-23T08:21:30.060Z,100.00
2022-10-23T08:23:58.629Z,100.00
2022-10-23T08:26:29.323Z,100.00
2022-10-23T08:28:58.458Z,100.00
2022-10-23T08:31:25.466Z,100.00
2022-10-23T08:33:52.076Z,100.00
2022-10-23T08:36:22.035Z,100.00
2022-10-23T08:38:49.369Z,100.00
2022-10-23T08:41:38.775Z,100.00
2022-10-23T08:44:31.028Z,100.00
2022-10-23T08:47:03.824Z,100.00
2022-10-23T08:49:42.288Z,100.00
2022-10-23T08:52:32.001Z,100.00
2022-10-23T08:55:29.292Z,100.00
2022-10-23T08:57:59.339Z,100.00
2022-10-23T09:00:28.224Z,100.00
2022-10-23T09:02:55.612Z,100.00
2022-10-23T09:05:31.800Z,100.00
2022-10-23T09:08:42.823Z,100.00
2022-10-23T09:11:19.567Z,100.00
2022-10-23T09:14:02.495Z,100.00
2022-10-23T09:16:41.007Z,100.00
2022-10-23T09:19:19.492Z,100.00
2022-10-23T09:21:49.953Z,100.00
2022-10-23T09:24:19.569Z,100.00
2022-10-23T09:26:50.517Z,100.00
2022-10-23T09:29:31.906Z,100.00
2022-10-23T09:32:00.971Z,100.00
2022-10-23T09:34:29.997Z,100.00
2022-10-23T09:37:27.760Z,100.00
2022-10-23T09:40:27.337Z,100.00
2022-10-23T09:43:00.780Z,100.00
2022-10-23T09:45:33.213Z,100.00
2022-10-23T09:48:05.895Z,100.00
2022-10-23T09:50:32.526Z,100.00
2022-10-23T09:52:59.546Z,100.00
2022-10-23T09:55:27.912Z,100.00
2022-10-23T09:57:55.644Z,100.00
2022-10-23T10:00:28.771Z,100.00
2022-10-23T10:03:04.787Z,100.00
2022-10-23T10:05:34.119Z,100.00
2022-10-23T10:08:08.006Z,100.00
2022-10-23T10:10:48.154Z,100.00
2022-10-23T10:13:38.277Z,100.00
2022-10-23T10:16:16.299Z,100.00
2022-10-23T10:18:48.815Z,100.00
2022-10-23T10:24:06.904Z,100.00
2022-10-23T10:26:41.659Z,100.00
2022-10-23T10:29:34.531Z,98.37
2022-10-23T10:32:37.939Z,99.22
2022-10-23T10:35:16.683Z,99.65
2022-10-23T10:37:54.562Z,98.89
2022-10-23T10:40:35.441Z,98.24
2022-10-23T10:43:13.911Z,96.86
2022-10-23T10:46:11.032Z,94.02
2022-10-23T10:48:49.534Z,96.18
2022-10-23T10:51:32.942Z,96.90
2022-10-23T10:54:18.960Z,98.24
2022-10-23T10:56:47.685Z,98.86
2022-10-23T10:59:30.512Z,100.00
2022-10-23T11:02:12.735Z,98.09
2022-10-23T11:05:18.020Z,98.30
2022-10-23T11:08:00.599Z,99.07
2022-10-23T11:10:28.964Z,97.96
2022-10-23T11:12:56.947Z,96.15
2022-10-23T11:15:29.140Z,98.21
2022-10-23T11:18:01.955Z,96.61
2022-10-23T11:20:58.107Z,97.80
2022-10-23T11:23:55.611Z,99.12
2022-10-23T11:26:35.263Z,100.00
2022-10-23T11:29:10.618Z,99.77
2022-10-23T11:31:54.346Z,97.00
2022-10-23T11:34:35.878Z,98.37
2022-10-23T11:37:12.231Z,98.36
2022-10-23T11:39:39.693Z,98.13
2022-10-23T11:42:06.288Z,98.79
2022-10-23T11:44:46.519Z,95.34
2022-10-23T11:47:40.051Z,95.74
2022-10-23T11:50:07.711Z,92.79
2022-10-23T11:52:50.316Z,91.54
2022-10-23T11:55:20.946Z,92.42
2022-10-23T11:58:12.247Z,93.53
2022-10-23T12:00:51.536Z,92.31
2022-10-23T12:03:26.118Z,91.92
2022-10-23T12:06:07.319Z,92.01
2022-10-23T12:08:37.725Z,92.46
2022-10-23T12:11:04.390Z,92.57
2022-10-23T12:13:38.193Z,93.25
2022-10-23T12:16:07.543Z,96.20
2022-10-23T12:18:46.438Z,94.86
2022-10-23T12:21:22.758Z,95.34
2022-10-23T12:24:39.919Z,94.29
2022-10-23T12:27:09.567Z,91.29
2022-10-23T12:29:36.796Z,90.15
2022-10-23T12:32:22.272Z,91.06
2022-10-23T12:35:03.831Z,93.68
2022-10-23T12:38:05.538Z,90.70
2022-10-23T12:40:32.398Z,91.23
2022-10-23T12:43:01.039Z,92.54
2022-10-23T12:45:31.978Z,94.29
2022-10-23T12:47:58.581Z,96.31
2022-10-23T12:50:34.568Z,100.00
2022-10-23T12:53:03.996Z,100.00
2022-10-23T12:55:46.393Z,100.00
2022-10-23T12:58:32.006Z,100.00
2022-10-23T13:01:01.656Z,99.52
2022-10-23T13:03:29.935Z,100.00
2022-10-23T13:05:59.470Z,100.00
2022-10-23T13:08:33.942Z,100.00
2022-10-23T13:11:00.874Z,100.00
2022-10-23T13:13:27.960Z,100.00
2022-10-23T13:15:54.642Z,100.00
2022-10-23T13:18:23.542Z,100.00
2022-10-23T13:20:55.079Z,100.00
2022-10-23T13:23:35.489Z,100.00
2022-10-23T13:26:21.383Z,100.00
2022-10-23T13:28:48.159Z,100.00
2022-10-23T13:31:14.677Z,100.00
2022-10-23T13:34:01.051Z,100.00
2022-10-23T13:36:35.771Z,100.00
2022-10-23T13:39:13.252Z,100.00
2022-10-23T13:41:41.135Z,100.00
2022-10-23T13:44:11.760Z,100.00
2022-10-23T13:46:39.583Z,100.00
2022-10-23T13:49:06.301Z,100.00
2022-10-23T13:51:42.657Z,100.00
2022-10-23T13:54:22.090Z,100.00
2022-10-23T13:56:49.135Z,100.00
2022-10-23T13:59:16.097Z,100.00
2022-10-23T14:01:43.700Z,100.00
2022-10-23T14:04:11.410Z,100.00
2022-10-23T14:06:38.336Z,100.00
2022-10-23T14:09:06.935Z,100.00
2022-10-23T14:11:35.791Z,100.00
2022-10-23T14:14:02.404Z,100.00
2022-10-23T14:16:32.088Z,100.00
2022-10-23T14:18:58.771Z,100.00
2022-10-23T14:21:25.554Z,100.00
2022-10-23T14:23:54.051Z,100.00
2022-10-23T14:26:27.707Z,100.00
2022-10-23T14:28:55.827Z,100.00
2022-10-23T14:31:23.497Z,100.00
2022-10-23T14:33:56.414Z,100.00
2022-10-23T14:36:24.106Z,100.00
2022-10-23T14:38:56.852Z,100.00
2022-10-23T14:41:24.936Z,100.00
2022-10-23T14:43:52.099Z,100.00
2022-10-23T14:46:21.693Z,100.00
2022-10-23T14:48:50.979Z,100.00
2022-10-23T14:51:28.366Z,100.00
2022-10-23T14:54:01.494Z,100.00
2022-10-23T14:56:33.852Z,100.00
2022-10-23T14:59:03.932Z,100.00
2022-10-23T15:01:42.282Z,100.00
2022-10-23T15:04:12.014Z,100.00
2022-10-23T15:06:38.767Z,100.00
2022-10-23T15:09:05.636Z,100.00
2022-10-23T15:11:32.995Z,100.00
2022-10-23T15:14:00.318Z,100.00
2022-10-23T15:16:27.388Z,100.00
2022-10-23T15:18:57.049Z,100.00
2022-10-23T15:21:24.217Z,100.00
2022-10-23T15:23:50.924Z,100.00
2022-10-23T15:26:22.090Z,100.00
2022-10-23T15:28:56.754Z,100.00
2022-10-23T15:31:41.046Z,100.00
2022-10-23T15:34:10.398Z,100.00
2022-10-23T15:36:37.308Z,100.00
2022-10-23T15:39:09.035Z,100.00
2022-10-23T15:41:37.228Z,100.00
2022-10-23T15:44:05.989Z,100.00
2022-10-23T15:46:33.263Z,100.00
2022-10-23T15:48:59.926Z,100.00
2022-10-23T15:51:27.446Z,100.00
2022-10-23T15:53:56.925Z,100.00
2022-10-23T15:56:24.709Z,100.00
2022-10-23T15:58:51.374Z,100.00
2022-10-23T16:01:18.611Z,100.00
2022-10-23T16:03:45.611Z,100.00
2022-10-23T16:06:14.879Z,100.00
2022-10-23T16:08:44.300Z,100.00
2022-10-23T16:11:19.773Z,100.00
2022-10-23T16:13:47.667Z,100.00
2022-10-23T16:16:14.977Z,100.00
2022-10-23T16:18:43.725Z,100.00
2022-10-23T16:21:21.439Z,100.00
2022-10-23T16:23:48.887Z,100.00
2022-10-23T16:26:16.447Z,100.00
2022-10-23T16:28:47.090Z,100.00
2022-10-23T16:31:20.657Z,100.00
2022-10-23T16:33:48.802Z,100.00
2022-10-23T16:36:16.423Z,100.00
2022-10-23T16:38:43.197Z,100.00
2022-10-23T16:41:10.082Z,100.00
2022-10-23T16:43:37.049Z,100.00
2022-10-23T16:46:24.191Z,100.00
2022-10-23T16:48:51.831Z,100.00
2022-10-23T16:51:22.546Z,100.00
2022-10-23T16:53:49.628Z,100.00
2022-10-23T16:56:18.575Z,100.00
2022-10-23T16:58:45.369Z,100.00
2022-10-23T17:01:16.219Z,100.00
2022-10-23T17:03:47.817Z,100.00
2022-10-23T17:06:17.688Z,100.00
2022-10-23T17:08:44.469Z,100.00
2022-10-23T17:11:19.891Z,100.00
2022-10-23T17:14:17.605Z,100.00
2022-10-23T17:16:47.749Z,100.00
2022-10-23T17:19:39.730Z,100.00
2022-10-23T17:22:02.774Z,100.00
2022-10-23T17:24:30.507Z,100.00
2022-10-23T17:26:57.209Z,100.00
2022-10-23T17:29:23.872Z,100.00
2022-10-23T17:31:51.771Z,100.00
2022-10-23T17:34:21.570Z,100.00
2022-10-23T17:36:49.672Z,100.00
2022-10-23T17:39:20.083Z,100.00
2022-10-23T17:41:47.260Z,100.00
2022-10-23T17:44:14.274Z,100.00
2022-10-23T17:46:40.968Z,100.00
2022-10-23T17:49:07.680Z,100.00
2022-10-23T17:51:37.497Z,100.00
2022-10-23T17:54:06.117Z,100.00
2022-10-23T17:56:34.702Z,100.00
2022-10-23T17:59:06.868Z,100.00
2022-10-23T18:01:33.982Z,100.00
2022-10-23T18:04:03.690Z,100.00
2022-10-23T18:06:41.984Z,100.00
2022-10-23T18:09:08.619Z,100.00
2022-10-23T18:11:37.560Z,100.00
2022-10-23T18:14:06.852Z,100.00
2022-10-23T18:16:35.027Z,100.00
2022-10-23T18:19:02.155Z,100.00
2022-10-23T18:21:28.938Z,100.00
2022-10-23T18:23:55.598Z,100.00
2022-10-23T18:26:28.335Z,100.00
2022-10-23T18:28:57.570Z,100.00
2022-10-23T18:31:27.071Z,100.00
2022-10-23T18:33:58.783Z,100.00
2022-10-23T18:36:28.570Z,100.00
2022-10-23T18:41:25.122Z,100.00
2022-10-23T18:43:52.683Z,100.00
2022-10-23T18:46:20.508Z,100.00
2022-10-23T18:48:53.130Z,100.00
2022-10-23T18:51:30.979Z,100.00
2022-10-23T18:54:00.098Z,100.00
2022-10-23T18:56:27.826Z,100.00
2022-10-23T18:59:00.117Z,100.00
2022-10-23T19:01:27.778Z,100.00
2022-10-23T19:06:23.968Z,100.00
2022-10-23T19:08:51.070Z,100.00
2022-10-23T19:11:21.088Z,100.00
2022-10-23T19:13:47.920Z,100.00
2022-10-23T19:16:18.323Z,100.00
2022-10-23T19:18:57.762Z,100.00
2022-10-23T19:21:31.414Z,100.00
2022-10-23T19:24:01.835Z,100.00
2022-10-23T19:26:30.132Z,100.00
2022-10-23T19:28:57.494Z,100.00
2022-10-23T19:31:26.552Z,100.00
2022-10-23T19:33:53.598Z,100.00
2022-10-23T19:36:23.457Z,100.00
2022-10-23T19:38:50.521Z,100.00
2022-10-23T19:41:18.330Z,100.00
2022-10-23T19:43:45.200Z,100.00
2022-10-23T19:46:12.896Z,100.00
2022-10-23T19:48:44.444Z,100.00
2022-10-23T19:51:13.298Z,100.00
2022-10-23T19:53:42.296Z,100.00
2022-10-23T19:56:11.147Z,100.00
2022-10-23T19:58:38.539Z,100.00
2022-10-23T20:01:11.459Z,100.00
2022-10-23T20:03:39.700Z,100.00
2022-10-23T20:06:10.551Z,100.00
2022-10-23T20:08:37.448Z,100.00
2022-10-23T20:11:04.557Z,100.00
2022-10-23T20:13:31.175Z,100.00
2022-10-23T20:15:57.803Z,100.00
2022-10-23T20:18:25.920Z,100.00
2022-10-23T20:20:53.592Z,100.00
2022-10-23T20:23:20.233Z,100.00
2022-10-23T20:25:47.980Z,100.00
2022-10-23T20:28:15.320Z,100.00
2022-10-23T20:30:44.508Z,100.00
2022-10-23T20:33:11.248Z,100.00
2022-10-23T20:35:40.342Z,100.00
2022-10-23T20:38:07.667Z,100.00
2022-10-23T20:40:34.550Z,100.00
2022-10-23T20:43:01.147Z,100.00
2022-10-23T20:45:27.796Z,100.00
2022-10-23T20:47:55.483Z,100.00
2022-10-23T20:50:23.846Z,100.00
2022-10-23T20:52:50.893Z,100.00
2022-10-23T20:55:17.801Z,100.00
2022-10-23T20:57:44.747Z,100.00
2022-10-23T21:00:12.056Z,100.00
2022-10-23T21:02:38.712Z,100.00
2022-10-23T21:05:05.827Z,100.00
2022-10-23T21:07:32.402Z,100.00
2022-10-23T21:09:59.422Z,100.00
2022-10-23T21:12:26.033Z,100.00
2022-10-23T21:14:53.622Z,100.00
2022-10-23T21:17:20.944Z,100.00
2022-10-23T21:19:47.660Z,100.00
2022-10-23T21:22:14.262Z,100.00
2022-10-23T21:24:40.900Z,100.00
2022-10-23T21:27:07.553Z,100.00
2022-10-23T21:29:34.354Z,100.00
2022-10-23T21:32:01.776Z,100.00
2022-10-23T21:34:29.785Z,100.00
2022-10-23T21:37:13.520Z,100.00
2022-10-23T21:39:44.657Z,100.00
2022-10-23T21:42:12.635Z,100.00
2022-10-23T21:44:39.278Z,100.00
2022-10-23T21:47:06.023Z,100.00
2022-10-23T21:49:32.593Z,100.00
2022-10-23T21:51:59.193Z,100.00
2022-10-23T21:54:25.830Z,100.00
2022-10-23T21:56:55.694Z,100.00
2022-10-23T21:59:24.319Z,100.00
2022-10-23T22:01:52.058Z,100.00
2022-10-23T22:04:19.908Z,100.00
2022-10-23T22:06:48.421Z,100.00
2022-10-23T22:09:17.844Z,100.00
2022-10-23T22:11:44.506Z,100.00
2022-10-23T22:14:11.106Z,100.00
2022-10-23T22:16:37.977Z,100.00
2022-10-23T22:19:04.638Z,100.00
2022-10-23T22:21:31.714Z,100.00
2022-10-23T22:24:00.267Z,100.00
2022-10-23T22:26:30.379Z,100.00
2022-10-23T22:28:59.842Z,100.00
2022-10-23T22:31:30.137Z,100.00
2022-10-23T22:33:57.285Z,100.00
2022-10-23T22:36:24.844Z,100.00
2022-10-23T22:38:51.620Z,100.00
2022-10-23T22:41:18.459Z,100.00
2022-10-23T22:43:45.100Z,100.00
2022-10-23T22:46:11.648Z,100.00
2022-10-23T22:48:38.568Z,100.00
2022-10-23T22:51:08.869Z,100.00
2022-10-23T22:53:35.922Z,100.00
2022-10-23T22:56:06.783Z,100.00
2022-10-23T22:58:33.400Z,100.00
2022-10-23T23:01:09.107Z,100.00
2022-10-23T23:03:37.165Z,100.00
2022-10-23T23:06:05.633Z,100.00
2022-10-23T23:08:33.924Z,100.00
2022-10-23T23:11:01.328Z,100.00
2022-10-23T23:13:28.448Z,100.00
2022-10-23T23:15:55.669Z,100.00
2022-10-23T23:18:22.888Z,100.00
2022-10-23T23:20:50.096Z,100.00
2022-10-23T23:23:17.751Z,100.00
2022-10-23T23:25:49.033Z,100.00
2022-10-23T23:28:19.003Z,100.00
2022-10-23T23:33:23.189Z,100.00
2022-10-23T23:35:49.798Z,100.00
2022-10-23T23:38:16.391Z,100.00
2022-10-23T23:40:51.930Z,100.00
2022-10-23T23:43:18.775Z,100.00
2022-10-23T23:45:45.772Z,100.00
2022-10-23T23:48:15.072Z,100.00
2022-10-23T23:50:42.426Z,100.00
2022-10-23T23:53:12.170Z,100.00
2022-10-23T23:55:38.909Z,100.00
2022-10-23T23:58:05.619Z,100.00
